createdAt,value
2018-04-10T00:01:48.353Z,8.80
2018-04-10T00:04:15.172Z,11.67
2018-04-10T00:06:41.328Z,8.70
2018-04-10T00:09:07.471Z,11.07
2018-04-10T00:11:33.709Z,8.57
2018-04-10T00:13:59.979Z,7.77
2018-04-10T00:16:26.094Z,8.23
2018-04-10T00:18:52.328Z,9.70
2018-04-10T00:21:18.604Z,9.53
2018-04-10T00:23:44.835Z,10.10
2018-04-10T00:26:11.084Z,10.73
2018-04-10T00:28:37.211Z,9.13
2018-04-10T00:31:03.435Z,11.97
2018-04-10T00:33:29.656Z,9.80
2018-04-10T00:35:56.549Z,9.83
2018-04-10T00:38:22.831Z,8.80
2018-04-10T00:40:49.056Z,9.90
2018-04-10T00:43:15.202Z,10.33
2018-04-10T00:45:41.420Z,10.83
2018-04-10T00:48:07.593Z,8.70
2018-04-10T00:50:33.765Z,8.90
2018-04-10T00:53:12.225Z,9.43
2018-04-10T00:55:38.473Z,9.63
2018-04-10T00:58:06.073Z,10.30
2018-04-10T01:00:32.248Z,10.47
2018-04-10T01:02:59.187Z,9.60
2018-04-10T01:05:25.352Z,9.60
2018-04-10T01:07:51.492Z,8.07
2018-04-10T01:10:17.713Z,9.83
2018-04-10T01:12:43.871Z,9.57
2018-04-10T01:15:10.789Z,9.90
2018-04-10T01:17:36.919Z,6.93
2018-04-10T01:20:03.144Z,9.20
2018-04-10T01:22:29.320Z,8.67
2018-04-10T01:24:55.490Z,8.57
2018-04-10T01:27:21.633Z,10.37
2018-04-10T01:29:47.771Z,9.93
2018-04-10T01:32:14.072Z,10.47
2018-04-10T01:34:40.305Z,10.00
2018-04-10T01:37:07.160Z,9.17
2018-04-10T01:39:34.052Z,8.63
2018-04-10T01:42:00.317Z,9.00
2018-04-10T01:44:26.463Z,9.70
2018-04-10T01:46:53.492Z,11.90
2018-04-10T01:49:19.933Z,7.57
2018-04-10T01:51:46.100Z,8.67
2018-04-10T01:54:12.386Z,8.70
2018-04-10T01:56:38.535Z,7.70
2018-04-10T01:59:04.890Z,9.87
2018-04-10T02:01:31.648Z,7.77
2018-04-10T02:03:58.537Z,8.20
2018-04-10T02:06:24.672Z,8.57
2018-04-10T02:08:50.870Z,9.23
2018-04-10T02:11:17.057Z,9.27
2018-04-10T02:13:43.239Z,8.17
2018-04-10T02:16:12.881Z,8.23
2018-04-10T02:18:40.079Z,10.17
2018-04-10T02:21:06.320Z,8.30
2018-04-10T02:23:32.538Z,7.67
2018-04-10T02:25:59.928Z,8.10
2018-04-10T02:28:26.120Z,7.97
2018-04-10T02:30:52.272Z,7.07
2018-04-10T02:33:18.425Z,8.90
2018-04-10T02:35:45.317Z,7.83
2018-04-10T02:38:11.492Z,8.07
2018-04-10T02:40:39.118Z,9.07
2018-04-10T02:43:05.264Z,7.20
2018-04-10T02:45:31.465Z,8.23
2018-04-10T02:47:57.588Z,6.93
2018-04-10T02:50:23.728Z,9.17
2018-04-10T02:52:49.854Z,8.37
2018-04-10T02:55:16.732Z,10.00
2018-04-10T02:57:42.844Z,8.33
2018-04-10T03:00:08.963Z,9.40
2018-04-10T03:02:35.281Z,6.03
2018-04-10T03:05:01.419Z,7.60
2018-04-10T03:07:27.617Z,7.30
2018-04-10T03:09:53.777Z,6.70
2018-04-10T03:12:20.680Z,8.97
2018-04-10T03:14:46.869Z,7.90
2018-04-10T03:17:13.029Z,7.70
2018-04-10T03:19:39.172Z,8.20
2018-04-10T03:22:05.298Z,5.63
2018-04-10T03:24:31.470Z,6.47
2018-04-10T03:26:57.597Z,5.50
2018-04-10T03:29:23.877Z,6.57
2018-04-10T03:31:50.782Z,5.27
2018-04-10T03:34:17.757Z,4.90
2018-04-10T03:36:44.670Z,5.37
2018-04-10T03:39:10.819Z,5.83
2018-04-10T03:41:43.868Z,6.27
2018-04-10T03:44:10.020Z,6.90
2018-04-10T03:46:36.199Z,4.67
2018-04-10T03:49:03.106Z,5.50
2018-04-10T03:51:29.256Z,7.00
2018-04-10T03:53:55.424Z,6.97
2018-04-10T03:56:21.664Z,7.13
2018-04-10T03:58:48.568Z,5.30
2018-04-10T04:01:15.065Z,6.77
2018-04-10T04:03:41.938Z,6.17
2018-04-10T04:06:08.079Z,7.30
2018-04-10T04:08:34.339Z,6.93
2018-04-10T04:11:00.485Z,6.17
2018-04-10T04:13:27.436Z,6.90
2018-04-10T04:15:53.599Z,7.37
2018-04-10T04:18:32.862Z,5.73
2018-04-10T04:21:11.235Z,5.13
2018-04-10T04:23:37.732Z,6.33
2018-04-10T04:26:03.897Z,6.60
2018-04-10T04:28:30.822Z,6.07
2018-04-10T04:30:56.978Z,5.57
2018-04-10T04:33:23.913Z,5.77
2018-04-10T04:35:50.331Z,6.03
2018-04-10T04:38:16.472Z,4.70
2018-04-10T04:40:42.643Z,4.77
2018-04-10T04:43:09.592Z,5.37
2018-04-10T04:45:35.783Z,4.73
2018-04-10T04:48:02.063Z,6.27
2018-04-10T04:50:28.972Z,5.67
2018-04-10T04:52:55.153Z,4.90
2018-04-10T04:55:22.125Z,4.30
2018-04-10T04:57:49.068Z,4.93
2018-04-10T05:00:15.256Z,4.37
2018-04-10T05:02:42.260Z,6.47
2018-04-10T05:05:08.497Z,5.50
2018-04-10T05:07:34.695Z,4.00
2018-04-10T05:10:02.588Z,4.97
2018-04-10T05:12:28.879Z,5.43
2018-04-10T05:14:55.078Z,6.90
2018-04-10T05:17:21.245Z,5.93
2018-04-10T05:19:47.397Z,5.43
2018-04-10T05:22:14.279Z,6.87
2018-04-10T05:24:40.408Z,6.03
2018-04-10T05:27:06.594Z,4.57
2018-04-10T05:29:33.509Z,5.90
2018-04-10T05:31:59.668Z,6.27
2018-04-10T05:34:25.974Z,5.83
2018-04-10T05:36:52.171Z,6.27
2018-04-10T05:39:19.043Z,6.03
2018-04-10T05:41:45.201Z,5.37
2018-04-10T05:44:11.836Z,6.20
2018-04-10T05:46:38.038Z,6.83
2018-04-10T05:49:04.962Z,5.80
2018-04-10T05:51:31.240Z,5.07
2018-04-10T05:53:57.398Z,7.17
2018-04-10T05:56:24.330Z,5.83
2018-04-10T05:58:50.472Z,5.33
2018-04-10T06:01:16.790Z,6.07
2018-04-10T06:03:43.044Z,5.30
2018-04-10T06:06:09.188Z,5.60
2018-04-10T06:08:35.295Z,5.67
2018-04-10T06:11:02.311Z,5.27
2018-04-10T06:13:28.462Z,5.40
2018-04-10T06:15:55.383Z,6.60
2018-04-10T06:18:21.736Z,5.90
2018-04-10T06:20:48.627Z,5.53
2018-04-10T06:23:14.771Z,7.77
2018-04-10T06:25:40.896Z,6.93
2018-04-10T06:28:07.072Z,6.43
2018-04-10T06:30:33.982Z,6.77
2018-04-10T06:33:00.131Z,4.67
2018-04-10T06:35:26.289Z,5.87
2018-04-10T06:37:53.146Z,7.70
2018-04-10T06:40:19.305Z,6.47
2018-04-10T06:42:45.427Z,5.80
2018-04-10T06:45:11.656Z,5.13
2018-04-10T06:47:38.543Z,6.27
2018-04-10T06:50:04.783Z,5.80
2018-04-10T06:52:31.088Z,5.53
2018-04-10T06:54:57.286Z,5.10
2018-04-10T06:57:23.531Z,4.93
2018-04-10T06:59:49.640Z,5.53
2018-04-10T07:02:15.800Z,5.13
2018-04-10T07:04:42.748Z,6.17
2018-04-10T07:07:08.876Z,6.87
2018-04-10T07:09:35.762Z,7.40
2018-04-10T07:12:01.913Z,8.57
2018-04-10T07:14:28.040Z,6.03
2018-04-10T07:16:54.547Z,6.90
2018-04-10T07:19:20.700Z,7.53
2018-04-10T07:21:46.889Z,7.97
2018-04-10T07:24:13.013Z,4.90
2018-04-10T07:26:39.132Z,4.87
2018-04-10T07:29:05.264Z,7.00
2018-04-10T07:31:32.220Z,5.07
2018-04-10T07:33:59.121Z,6.43
2018-04-10T07:36:25.245Z,4.10
2018-04-10T07:38:51.420Z,4.63
2018-04-10T07:41:17.640Z,6.30
2018-04-10T07:43:43.818Z,5.80
2018-04-10T07:46:09.986Z,5.03
2018-04-10T07:48:36.112Z,7.57
2018-04-10T07:51:02.986Z,4.77
2018-04-10T07:53:29.177Z,5.90
2018-04-10T07:55:55.336Z,6.73
2018-04-10T07:58:21.854Z,5.67
2018-04-10T08:00:48.027Z,6.37
2018-04-10T08:03:14.233Z,4.43
2018-04-10T08:05:41.176Z,5.30
2018-04-10T08:08:07.304Z,4.57
2018-04-10T08:10:34.213Z,4.47
2018-04-10T08:13:00.342Z,7.13
2018-04-10T08:15:26.621Z,3.47
2018-04-10T08:17:53.744Z,6.30
2018-04-10T08:20:19.923Z,3.63
2018-04-10T08:22:46.835Z,3.47
2018-04-10T08:25:13.043Z,4.10
2018-04-10T08:27:39.271Z,3.53
2018-04-10T08:30:05.411Z,3.00
2018-04-10T08:32:31.637Z,4.53
2018-04-10T08:34:57.846Z,3.53
2018-04-10T08:37:24.721Z,3.30
2018-04-10T08:39:50.878Z,2.97
2018-04-10T08:42:17.144Z,2.63
2018-04-10T08:44:44.089Z,4.23
2018-04-10T08:47:10.242Z,2.60
2018-04-10T08:49:37.157Z,2.47
2018-04-10T08:52:03.288Z,3.03
2018-04-10T08:54:29.460Z,3.27
2018-04-10T08:56:55.639Z,2.90
2018-04-10T08:59:21.867Z,3.00
2018-04-10T09:01:48.012Z,3.00
2018-04-10T09:04:14.144Z,4.50
2018-04-10T09:06:40.788Z,4.43
2018-04-10T09:09:07.004Z,2.90
2018-04-10T09:11:33.178Z,4.43
2018-04-10T09:13:59.352Z,3.03
2018-04-10T09:16:25.532Z,3.20
2018-04-10T09:18:51.776Z,1.47
2018-04-10T09:21:18.670Z,2.07
2018-04-10T09:23:44.792Z,1.73
2018-04-10T09:26:10.956Z,3.33
2018-04-10T09:28:37.155Z,5.00
2018-04-10T09:31:03.349Z,2.53
2018-04-10T09:33:29.481Z,2.30
2018-04-10T09:35:55.667Z,2.37
2018-04-10T09:38:22.608Z,2.20
2018-04-10T09:40:49.508Z,1.37
2018-04-10T09:43:17.168Z,2.40
2018-04-10T09:45:43.402Z,1.90
2018-04-10T09:48:09.573Z,1.80
2018-04-10T09:50:35.764Z,2.87
2018-04-10T09:53:01.977Z,1.77
2018-04-10T09:55:28.114Z,1.73
2018-04-10T09:57:54.310Z,1.90
2018-04-10T10:00:27.335Z,1.53
2018-04-10T10:02:53.534Z,1.13
2018-04-10T10:05:20.396Z,2.83
2018-04-10T10:07:46.568Z,3.00
2018-04-10T10:10:12.841Z,2.53
2018-04-10T10:12:39.713Z,1.43
2018-04-10T10:15:05.894Z,1.10
2018-04-10T10:17:32.080Z,1.70
2018-04-10T10:19:58.382Z,2.43
2018-04-10T10:22:24.510Z,2.80
2018-04-10T10:24:50.673Z,1.70
2018-04-10T10:27:16.852Z,1.20
2018-04-10T10:29:43.023Z,1.27
2018-04-10T10:32:09.289Z,1.93
2018-04-10T10:34:36.159Z,1.37
2018-04-10T10:37:02.359Z,1.40
2018-04-10T10:39:28.520Z,1.67
2018-04-10T10:41:54.710Z,2.00
2018-04-10T10:44:21.392Z,1.50
2018-04-10T10:46:47.603Z,1.33
2018-04-10T10:49:14.552Z,3.20
2018-04-10T10:51:41.503Z,2.07
2018-04-10T10:54:07.724Z,1.17
2018-04-10T10:56:33.882Z,1.20
2018-04-10T10:59:00.061Z,3.30
2018-04-10T11:01:26.193Z,1.43
2018-04-10T11:03:52.416Z,1.67
2018-04-10T11:06:18.544Z,1.50
2018-04-10T11:08:44.776Z,2.07
2018-04-10T11:11:10.919Z,3.00
2018-04-10T11:13:37.245Z,0.70
2018-04-10T11:16:07.435Z,2.23
2018-04-10T11:18:34.310Z,2.67
2018-04-10T11:21:00.649Z,1.93
2018-04-10T11:23:26.785Z,2.13
2018-04-10T11:25:52.955Z,1.60
2018-04-10T11:28:19.125Z,5.83
2018-04-10T11:30:45.306Z,2.83
2018-04-10T11:33:11.459Z,3.07
2018-04-10T11:35:37.617Z,0.70
2018-04-10T11:38:04.505Z,1.73
2018-04-10T11:40:30.615Z,2.27
2018-04-10T11:42:56.758Z,2.83
2018-04-10T11:45:23.209Z,1.03
2018-04-10T11:47:49.317Z,1.83
2018-04-10T11:50:15.560Z,1.23
2018-04-10T11:52:41.712Z,3.03
2018-04-10T11:55:07.868Z,1.27
2018-04-10T11:57:33.980Z,1.33
2018-04-10T12:00:00.172Z,5.60
2018-04-10T12:02:27.093Z,1.33
2018-04-10T12:04:53.248Z,1.53
2018-04-10T12:07:20.165Z,2.40
2018-04-10T12:09:47.074Z,2.37
2018-04-10T12:12:13.243Z,1.90
2018-04-10T12:14:39.381Z,2.43
2018-04-10T12:17:05.498Z,1.70
2018-04-10T12:19:31.783Z,1.07
2018-04-10T12:21:57.941Z,1.57
2018-04-10T12:24:24.098Z,1.70
2018-04-10T12:26:50.310Z,2.80
2018-04-10T12:29:16.542Z,1.40
2018-04-10T12:31:43.268Z,1.17
2018-04-10T12:34:10.173Z,1.50
2018-04-10T12:36:36.314Z,2.43
2018-04-10T12:39:02.455Z,0.50
2018-04-10T12:41:28.579Z,2.10
2018-04-10T12:43:54.718Z,2.10
2018-04-10T12:46:21.657Z,0.80
2018-04-10T12:48:48.557Z,2.00
2018-04-10T12:51:15.442Z,2.13
2018-04-10T12:53:41.592Z,1.53
2018-04-10T12:56:07.704Z,0.97
2018-04-10T12:58:34.591Z,0.87
2018-04-10T13:01:00.725Z,2.10
2018-04-10T13:03:26.877Z,1.40
2018-04-10T13:05:53.010Z,1.83
2018-04-10T13:08:20.057Z,1.47
2018-04-10T13:10:46.196Z,3.23
2018-04-10T13:13:13.083Z,1.10
2018-04-10T13:15:39.251Z,1.03
2018-04-10T13:18:05.442Z,1.23
2018-04-10T13:20:31.610Z,2.73
2018-04-10T13:22:57.777Z,1.40
2018-04-10T13:25:23.921Z,1.40
2018-04-10T13:27:50.120Z,1.30
2018-04-10T13:30:16.346Z,1.93
2018-04-10T13:32:42.503Z,1.30
2018-04-10T13:35:08.684Z,2.27
2018-04-10T13:37:34.852Z,0.93
2018-04-10T13:40:00.981Z,1.73
2018-04-10T13:42:27.150Z,2.47
2018-04-10T13:44:53.313Z,1.10
2018-04-10T13:47:19.507Z,1.10
2018-04-10T13:49:46.409Z,1.57
2018-04-10T13:52:12.581Z,1.93
2018-04-10T13:54:38.803Z,2.53
2018-04-10T13:57:04.957Z,1.77
2018-04-10T13:59:31.837Z,1.27
2018-04-10T14:01:58.237Z,1.60
2018-04-10T14:04:25.108Z,1.67
2018-04-10T14:06:51.251Z,1.47
2018-04-10T14:09:17.712Z,2.20
2018-04-10T14:11:43.940Z,0.80
2018-04-10T14:14:10.074Z,1.80
2018-04-10T14:16:36.242Z,0.77
2018-04-10T14:19:02.405Z,1.80
2018-04-10T14:21:29.290Z,2.27
2018-04-10T14:23:55.508Z,1.07
2018-04-10T14:26:21.665Z,0.60
2018-04-10T14:28:47.847Z,0.90
2018-04-10T14:31:14.713Z,2.70
2018-04-10T14:33:40.818Z,0.97
2018-04-10T14:36:06.953Z,1.17
2018-04-10T14:38:33.866Z,0.60
2018-04-10T14:40:59.978Z,0.70
2018-04-10T14:43:26.088Z,2.47
2018-04-10T14:46:00.184Z,2.27
2018-04-10T14:48:26.288Z,1.27
2018-04-10T14:50:52.451Z,1.60
2018-04-10T14:53:18.609Z,1.83
2018-04-10T14:55:44.711Z,1.57
2018-04-10T14:58:11.602Z,0.63
2018-04-10T15:00:37.818Z,0.83
2018-04-10T15:03:03.929Z,1.73
2018-04-10T15:05:30.028Z,1.97
2018-04-10T15:07:56.132Z,1.33
2018-04-10T15:10:22.272Z,0.80
2018-04-10T15:12:48.447Z,0.67
2018-04-10T15:15:14.556Z,2.10
2018-04-10T15:17:40.681Z,1.73
2018-04-10T15:20:06.801Z,1.07
2018-04-10T15:22:32.952Z,0.70
2018-04-10T15:24:59.428Z,0.60
2018-04-10T15:27:25.606Z,2.20
2018-04-10T15:29:51.736Z,1.33
2018-04-10T15:32:17.910Z,0.90
2018-04-10T15:34:44.017Z,2.00
2018-04-10T15:37:10.181Z,0.80
2018-04-10T15:39:37.118Z,1.77
2018-04-10T15:42:03.251Z,3.33
2018-04-10T15:44:29.396Z,1.43
2018-04-10T15:46:56.370Z,2.53
2018-04-10T15:49:23.268Z,1.03
2018-04-10T15:51:49.491Z,1.10
2018-04-10T15:54:15.719Z,1.33
2018-04-10T15:56:43.358Z,1.63
2018-04-10T15:59:09.550Z,0.90
2018-04-10T16:01:35.684Z,1.47
2018-04-10T16:04:02.628Z,1.00
2018-04-10T16:06:28.759Z,1.27
2018-04-10T16:08:54.909Z,2.30
2018-04-10T16:11:21.548Z,2.23
2018-04-10T16:13:48.451Z,4.13
2018-04-10T16:16:14.591Z,2.00
2018-04-10T16:18:40.705Z,1.20
2018-04-10T16:21:06.904Z,2.17
2018-04-10T16:23:33.064Z,1.83
2018-04-10T16:25:59.206Z,2.53
2018-04-10T16:28:25.332Z,3.00
2018-04-10T16:30:51.472Z,2.10
2018-04-10T16:33:17.643Z,2.10
2018-04-10T16:35:43.797Z,1.63
2018-04-10T16:38:10.796Z,2.30
2018-04-10T16:40:36.953Z,1.90
2018-04-10T16:43:03.122Z,1.60
2018-04-10T16:45:30.041Z,1.37
2018-04-10T16:47:56.228Z,1.53
2018-04-10T16:50:22.360Z,0.97
2018-04-10T16:52:48.528Z,1.47
2018-04-10T16:55:15.433Z,0.80
2018-04-10T16:57:42.377Z,1.93
2018-04-10T17:00:08.603Z,1.23
2018-04-10T17:02:34.804Z,1.53
2018-04-10T17:05:00.955Z,1.80
2018-04-10T17:07:27.120Z,2.50
2018-04-10T17:09:54.024Z,4.93
2018-04-10T17:12:20.363Z,1.27
2018-04-10T17:14:46.516Z,1.00
2018-04-10T17:17:13.420Z,1.50
2018-04-10T17:19:39.664Z,1.50
2018-04-10T17:22:05.893Z,2.00
2018-04-10T17:24:32.122Z,1.30
2018-04-10T17:26:58.957Z,3.53
2018-04-10T17:29:25.096Z,2.80
2018-04-10T17:31:51.283Z,1.13
2018-04-10T17:34:17.452Z,2.53
2018-04-10T17:36:43.672Z,0.77
2018-04-10T17:39:11.291Z,0.90
2018-04-10T17:41:38.105Z,1.83
2018-04-10T17:44:04.379Z,2.90
2018-04-10T17:46:30.556Z,1.37
2018-04-10T17:48:57.461Z,1.50
2018-04-10T17:51:23.594Z,1.00
2018-04-10T17:53:49.785Z,2.03
2018-04-10T17:56:16.097Z,1.27
2018-04-10T17:58:43.023Z,0.87
2018-04-10T18:01:09.173Z,2.27
2018-04-10T18:03:35.322Z,1.07
2018-04-10T18:06:01.534Z,1.50
2018-04-10T18:08:28.425Z,1.37
2018-04-10T18:10:54.545Z,1.83
2018-04-10T18:13:21.712Z,1.83
2018-04-10T18:15:47.924Z,2.50
2018-04-10T18:18:14.875Z,2.33
2018-04-10T18:20:41.870Z,1.80
2018-04-10T18:23:08.071Z,2.20
2018-04-10T18:25:34.317Z,1.83
2018-04-10T18:28:00.515Z,3.67
2018-04-10T18:30:27.436Z,4.27
2018-04-10T18:32:53.583Z,1.30
2018-04-10T18:35:19.709Z,1.90
2018-04-10T18:37:46.663Z,2.47
2018-04-10T18:40:12.862Z,2.83
2018-04-10T18:42:39.049Z,4.87
2018-04-10T18:45:05.236Z,1.53
2018-04-10T18:47:31.504Z,1.23
2018-04-10T18:49:57.772Z,2.47
2018-04-10T18:52:24.234Z,1.90
2018-04-10T18:54:50.558Z,2.17
2018-04-10T18:57:16.894Z,1.30
2018-04-10T18:59:43.057Z,1.50
2018-04-10T19:02:09.395Z,1.53
2018-04-10T19:04:36.120Z,1.50
2018-04-10T19:07:03.180Z,2.07
2018-04-10T19:09:30.129Z,2.60
2018-04-10T19:11:57.303Z,1.53
2018-04-10T19:14:23.908Z,1.47
2018-04-10T19:16:50.947Z,1.37
2018-04-10T19:19:17.185Z,1.60
2018-04-10T19:21:43.684Z,1.30
2018-04-10T19:24:10.801Z,2.07
2018-04-10T19:26:37.848Z,2.13
2018-04-10T19:29:06.960Z,1.13
2018-04-10T19:31:41.689Z,2.10
2018-04-10T19:34:13.451Z,1.17
2018-04-10T19:36:48.360Z,2.03
2018-04-10T19:39:17.085Z,2.60
2018-04-10T19:41:44.331Z,1.47
2018-04-10T19:44:11.208Z,2.10
2018-04-10T19:46:37.886Z,1.30
2018-04-10T19:49:05.001Z,3.30
2018-04-10T19:51:32.234Z,2.73
2018-04-10T19:53:59.297Z,2.43
2018-04-10T19:56:26.452Z,1.77
2018-04-10T19:58:52.677Z,3.13
2018-04-10T20:01:23.511Z,2.90
2018-04-10T20:03:50.039Z,2.33
2018-04-10T20:06:16.380Z,1.87
2018-04-10T20:08:42.636Z,1.80
2018-04-10T20:11:08.849Z,1.57
2018-04-10T20:13:36.230Z,2.20
2018-04-10T20:16:03.182Z,1.50
2018-04-10T20:18:29.354Z,1.57
2018-04-10T20:20:55.549Z,1.40
2018-04-10T20:23:22.552Z,1.80
2018-04-10T20:25:49.543Z,2.73
2018-04-10T20:28:15.884Z,1.53
2018-04-10T20:30:42.300Z,1.47
2018-04-10T20:33:08.560Z,1.90
2018-04-10T20:35:34.820Z,2.03
2018-04-10T20:38:01.844Z,1.53
2018-04-10T20:40:28.054Z,1.67
2018-04-10T20:42:54.285Z,3.40
2018-04-10T20:45:21.270Z,1.87
2018-04-10T20:47:47.674Z,1.40
2018-04-10T20:50:13.930Z,3.07
2018-04-10T20:52:40.103Z,2.23
2018-04-10T20:55:06.308Z,2.27
2018-04-10T20:57:32.456Z,1.50
2018-04-10T20:59:58.637Z,2.77
2018-04-10T21:02:24.910Z,1.97
2018-04-10T21:04:51.113Z,3.37
2018-04-10T21:07:17.455Z,2.23
2018-04-10T21:09:44.473Z,1.63
2018-04-10T21:12:11.441Z,1.70
2018-04-10T21:14:38.836Z,1.60
2018-04-10T21:17:05.009Z,1.20
2018-04-10T21:19:31.292Z,2.00
2018-04-10T21:21:57.556Z,2.80
2018-04-10T21:24:23.798Z,1.70
2018-04-10T21:26:50.013Z,1.93
2018-04-10T21:29:17.021Z,2.27
2018-04-10T21:31:44.113Z,2.63
2018-04-10T21:34:11.055Z,1.63
2018-04-10T21:36:37.935Z,3.37
2018-04-10T21:39:05.153Z,2.03
2018-04-10T21:41:31.404Z,2.60
2018-04-10T21:43:57.999Z,1.90
2018-04-10T21:46:24.472Z,2.50
2018-04-10T21:48:51.390Z,1.87
2018-04-10T21:51:17.577Z,2.50
2018-04-10T21:53:46.886Z,1.50
2018-04-10T21:56:13.795Z,3.30
2018-04-10T21:58:39.992Z,1.57
2018-04-10T22:01:06.149Z,1.73
2018-04-10T22:03:33.092Z,1.93
2018-04-10T22:05:59.319Z,2.23
2018-04-10T22:08:25.993Z,1.80
2018-04-10T22:10:52.414Z,2.67
2018-04-10T22:13:18.595Z,1.60
2018-04-10T22:15:47.484Z,1.90
2018-04-10T22:18:14.720Z,1.50
2018-04-10T22:20:41.183Z,1.70
2018-04-10T22:23:07.460Z,2.57
2018-04-10T22:25:33.753Z,1.70
2018-04-10T22:28:00.654Z,1.67
2018-04-10T22:30:26.801Z,2.00
2018-04-10T22:32:53.000Z,1.77
2018-04-10T22:35:19.236Z,3.47
2018-04-10T22:37:45.486Z,2.50
2018-04-10T22:40:11.684Z,1.70
2018-04-10T22:42:37.887Z,1.80
2018-04-10T22:45:05.418Z,2.20
2018-04-10T22:47:32.545Z,1.67
2018-04-10T22:49:59.506Z,3.77
2018-04-10T22:52:25.779Z,1.77
2018-04-10T22:54:52.397Z,3.83
2018-04-10T22:57:18.612Z,2.80
2018-04-10T22:59:44.873Z,2.10
2018-04-10T23:02:11.058Z,1.80
2018-04-10T23:04:38.233Z,1.87
2018-04-10T23:07:04.453Z,2.60
2018-04-10T23:09:30.885Z,1.80
2018-04-10T23:11:57.131Z,2.10
2018-04-10T23:14:24.156Z,1.67
2018-04-10T23:16:50.789Z,2.13
2018-04-10T23:19:17.797Z,2.23
2018-04-10T23:21:43.979Z,1.63
2018-04-10T23:24:18.313Z,2.40
2018-04-10T23:26:52.536Z,1.70
2018-04-10T23:29:18.755Z,3.27
2018-04-10T23:31:45.801Z,2.53
2018-04-10T23:34:12.081Z,1.77
2018-04-10T23:36:38.365Z,3.30
2018-04-10T23:39:04.848Z,1.90
2018-04-10T23:41:31.149Z,3.00
2018-04-10T23:43:58.107Z,1.90
2018-04-10T23:46:24.548Z,2.67
2018-04-10T23:48:51.543Z,1.87
2018-04-10T23:51:18.287Z,4.83
2018-04-10T23:53:45.168Z,2.40
2018-04-10T23:56:11.663Z,2.50
2018-04-10T23:58:37.892Z,2.37
